Terminal Aerodrome Forecast
Issued by NWS

Home | Current Version | Previous Version | Text Only | Print | Product List | Glossary On
Versions: 1 2 3 4 5 6 7 8 9 10 11 12
224
FTUS46 KSTO 250523
TAFRBL
TAF
KRBL 250523Z 2506/2606 18011KT P6SM SKC
     FM260500 17007KT P6SM SCT250=

USA.gov is the U.S. government's official web portal to all federal, state and local government web resources and services.